Terminal Aerodrome Forecast
Issued by NWS

Home | Current Version | Previous Version | Text Only | Print | Product List | Glossary On
Versions: 1 2 3 4 5 6 7 8 9 10 11 12 13 14 15 16 17 18 19 20 21 22 23 24 25 26
000
FTUS43 KDLH 020542
TAFBRD
TAF
KBRD 020542Z 0206/0306 14004KT 6SM HZ BR VCSH SCT040 OVC120
     FM020900 16003KT 3SM HZ BR VCTS FEW015 BKN060CB
      TEMPO 0209/0212 1 1/2SM HZ BR
     FM021300 17011KT P6SM FEW040 SCT080
     FM030100 15006KT 6SM HZ BR SKC=

USA.gov is the U.S. government's official web portal to all federal, state and local government web resources and services.